Главная страница
METAR-TAF:

METAR-TAF

Аэропорты :

Кривой Рог, Украина

широта: 48-03N, долгота: 033-13-12E, высота над уровнем моря: 124 м

Текущие метеонаблюдения

Эта сводка был подготовлена 36 минут назад, в 12:30 UTC
Ветер 10 Узел от восточно-юго-восточный, изменяющийся между восточный и юго-восточный
Температура 24°C
Влажность 38%
Давление 1026 hPa
Видимость 10 км и более
Нет облачности ниже 1500 м, и нет кучево-дождевой облачности

METAR: UKDR 161230Z 11005MPS 080V140 CAVOK 24/09 Q1026 R18/09//70 NOSIG

Время: 16:06 (13:06 UTC)

Прогноз

Эта сводка был подготовлена 2 часа и 2 минут назад, в 11:04 UTC
Прогноз действительный с 16-го 12 UTC до 17-го 12 UTC
Ветер 10 Узел от восточный с порывами до 19 Узел
Видимость 10 км и более
Нет облачности ниже 1500 м, и нет кучево-дождевой облачности

TAF: UKDR 161104Z 1612/1712 09005G10MPS CAVOK TX25/1612Z TN11/1703Z

Метеонаблюдения и прогнозы для более 4000 аэропортов (сводки METAR и TAF).

Имеющиеся станции представлены на карте желтыми и красными точками.

Чтобы увидеть название станции, наведите на нее мышь.

Затем щелкните, чтобы увидеть метеонаблюдения и метеопрогнозы.

Управление картой: чтобы увеличить масштаб, щелкните зеленые кнопки с черным крестиком; чтобы уменьшить масштаб, щелкните зеленую кнопку с тире; для просмотра соседних карт щелкайте зеленые стрелки.


METAR-TAF: